createdAt,value
2022-07-25T00:00:27.666Z,20.80
2022-07-25T00:02:54.682Z,20.70
2022-07-25T00:05:22.261Z,20.70
2022-07-25T00:07:50.141Z,20.70
2022-07-25T00:10:17.974Z,20.60
2022-07-25T00:12:45.545Z,20.70
2022-07-25T00:15:13.328Z,20.70
2022-07-25T00:17:40.788Z,20.70
2022-07-25T00:20:09.048Z,20.60
2022-07-25T00:22:36.170Z,20.60
2022-07-25T00:25:03.642Z,20.60
2022-07-25T00:27:30.735Z,20.60
2022-07-25T00:29:58.066Z,20.60
2022-07-25T00:32:25.138Z,20.60
2022-07-25T00:34:52.289Z,20.60
2022-07-25T00:37:19.446Z,20.50
2022-07-25T00:39:46.532Z,20.40
2022-07-25T00:42:13.712Z,20.40
2022-07-25T00:44:41.210Z,20.40
2022-07-25T00:47:08.296Z,20.40
2022-07-25T00:49:35.387Z,20.40
2022-07-25T00:52:02.765Z,20.50
2022-07-25T00:54:30.388Z,20.40
2022-07-25T00:56:57.559Z,20.40
2022-07-25T00:59:24.771Z,20.40
2022-07-25T01:01:52.013Z,20.40
2022-07-25T01:04:19.230Z,20.40
2022-07-25T01:06:46.976Z,20.40
2022-07-25T01:09:14.495Z,20.40
2022-07-25T01:11:41.573Z,20.50
2022-07-25T01:14:09.108Z,20.50
2022-07-25T01:16:36.433Z,20.60
2022-07-25T01:19:03.755Z,20.70
2022-07-25T01:21:30.844Z,20.60
2022-07-25T01:23:57.937Z,20.50
2022-07-25T01:26:25.088Z,20.50
2022-07-25T01:28:53.046Z,20.40
2022-07-25T01:31:20.163Z,20.40
2022-07-25T01:33:47.268Z,20.40
2022-07-25T01:36:14.651Z,20.30
2022-07-25T01:38:41.832Z,20.20
2022-07-25T01:41:08.959Z,20.20
2022-07-25T01:43:36.067Z,20.30
2022-07-25T01:46:03.382Z,20.40
2022-07-25T01:48:30.508Z,20.40
2022-07-25T01:50:57.652Z,20.40
2022-07-25T01:53:24.732Z,20.30
2022-07-25T01:55:53.334Z,20.40
2022-07-25T01:58:21.575Z,20.30
2022-07-25T02:00:49.547Z,20.30
2022-07-25T02:03:45.867Z,20.20
2022-07-25T02:06:12.976Z,20.20
2022-07-25T02:08:40.067Z,20.20
2022-07-25T02:11:07.383Z,20.10
2022-07-25T02:13:34.483Z,20.10
2022-07-25T02:16:01.537Z,20.10
2022-07-25T02:18:28.724Z,20.00
2022-07-25T02:20:55.906Z,19.90
2022-07-25T02:23:22.988Z,19.90
2022-07-25T02:25:50.160Z,19.90
2022-07-25T02:28:17.449Z,19.90
2022-07-25T02:30:44.852Z,19.90
2022-07-25T02:33:12.063Z,20.00
2022-07-25T02:35:39.095Z,20.00
2022-07-25T02:38:06.172Z,20.00
2022-07-25T02:40:33.323Z,20.00
2022-07-25T02:43:00.368Z,19.90
2022-07-25T02:45:27.451Z,19.90
2022-07-25T02:47:54.570Z,19.80
2022-07-25T02:50:23.679Z,19.80
2022-07-25T02:52:50.719Z,19.70
2022-07-25T02:55:17.867Z,19.70
2022-07-25T02:57:44.872Z,19.80
2022-07-25T03:00:13.119Z,19.80
2022-07-25T03:02:40.311Z,19.90
2022-07-25T03:05:09.233Z,19.80
2022-07-25T03:07:36.455Z,19.70
2022-07-25T03:10:10.465Z,19.70
2022-07-25T03:12:39.062Z,19.70
2022-07-25T03:15:10.015Z,19.70
2022-07-25T03:17:37.260Z,19.80
2022-07-25T03:20:07.432Z,19.70
2022-07-25T03:22:35.301Z,19.70
2022-07-25T03:25:02.502Z,19.70
2022-07-25T03:27:29.760Z,19.70
2022-07-25T03:29:57.301Z,19.60
2022-07-25T03:32:24.433Z,19.60
2022-07-25T03:34:51.651Z,19.50
2022-07-25T03:37:18.762Z,19.40
2022-07-25T03:39:45.963Z,19.40
2022-07-25T03:42:13.095Z,19.40
2022-07-25T03:44:40.317Z,19.50
2022-07-25T03:47:07.727Z,19.40
2022-07-25T03:49:35.854Z,19.40
2022-07-25T03:52:03.529Z,19.40
2022-07-25T03:54:30.546Z,19.50
2022-07-25T03:56:58.097Z,19.60
2022-07-25T03:59:25.225Z,19.60
2022-07-25T04:01:53.336Z,19.60
2022-07-25T04:04:20.534Z,19.70
2022-07-25T04:06:47.703Z,19.70
2022-07-25T04:09:15.951Z,19.70
2022-07-25T04:11:43.375Z,19.70
2022-07-25T04:14:11.290Z,19.80
2022-07-25T04:16:39.358Z,20.00
2022-07-25T04:19:07.762Z,20.30
2022-07-25T04:21:35.945Z,20.50
2022-07-25T04:24:03.520Z,20.80
2022-07-25T04:26:30.926Z,20.90
2022-07-25T04:28:58.967Z,21.10
2022-07-25T04:31:26.444Z,21.40
2022-07-25T04:33:53.598Z,21.60
2022-07-25T04:36:21.081Z,21.80
2022-07-25T04:38:48.126Z,22.00
2022-07-25T04:41:15.252Z,22.20
2022-07-25T04:43:48.035Z,22.40
2022-07-25T04:46:20.582Z,22.70
2022-07-25T04:48:50.248Z,22.90
2022-07-25T04:51:18.172Z,23.10
2022-07-25T04:53:45.451Z,23.20
2022-07-25T04:56:12.570Z,23.50
2022-07-25T04:58:39.916Z,23.90
2022-07-25T05:01:07.643Z,24.00
2022-07-25T05:03:34.933Z,24.10
2022-07-25T05:06:02.057Z,24.20
2022-07-25T05:08:29.619Z,24.50
2022-07-25T05:10:56.757Z,24.60
2022-07-25T05:13:23.875Z,24.90
2022-07-25T05:15:50.959Z,25.10
2022-07-25T05:18:18.034Z,25.30
2022-07-25T05:20:45.081Z,25.60
2022-07-25T05:23:12.380Z,25.90
2022-07-25T05:25:39.946Z,26.30
2022-07-25T05:28:06.984Z,26.50
2022-07-25T05:30:39.362Z,26.70
2022-07-25T05:33:07.349Z,26.90
2022-07-25T05:35:34.491Z,27.10
2022-07-25T05:38:01.517Z,27.20
2022-07-25T05:40:28.686Z,27.20
2022-07-25T05:42:59.488Z,27.40
2022-07-25T05:45:30.667Z,27.40
2022-07-25T05:47:58.058Z,27.50
2022-07-25T05:50:25.483Z,27.60
2022-07-25T05:52:53.027Z,27.90
2022-07-25T05:55:23.042Z,28.10
2022-07-25T05:57:50.305Z,28.20
2022-07-25T06:00:17.869Z,27.70
2022-07-25T06:02:45.120Z,27.40
2022-07-25T06:05:12.232Z,27.10
2022-07-25T06:07:40.019Z,27.10
2022-07-25T06:10:07.610Z,27.40
2022-07-25T06:12:36.620Z,27.30
2022-07-25T06:15:05.115Z,27.50
2022-07-25T06:17:32.795Z,27.40
2022-07-25T06:20:00.079Z,27.00
2022-07-25T06:22:27.259Z,26.70
2022-07-25T06:24:54.308Z,26.60
2022-07-25T06:27:24.939Z,26.80
2022-07-25T06:29:54.869Z,26.90
2022-07-25T06:32:22.315Z,26.60
2022-07-25T06:34:49.610Z,26.30
2022-07-25T06:37:16.920Z,26.10
2022-07-25T06:39:46.021Z,25.90
2022-07-25T06:42:13.660Z,26.50
2022-07-25T06:44:41.003Z,27.20
2022-07-25T06:47:12.947Z,27.70
2022-07-25T06:49:41.555Z,27.90
2022-07-25T06:52:09.213Z,28.60
2022-07-25T06:54:36.330Z,29.50
2022-07-25T06:57:03.642Z,29.90
2022-07-25T06:59:30.716Z,30.00
2022-07-25T07:01:57.823Z,30.00
2022-07-25T07:04:24.970Z,29.70
2022-07-25T07:06:52.044Z,30.10
2022-07-25T07:09:19.113Z,30.30
2022-07-25T07:11:46.232Z,30.90
2022-07-25T07:14:13.272Z,31.50
2022-07-25T07:16:41.663Z,31.70
2022-07-25T07:19:12.253Z,32.20
2022-07-25T07:21:39.442Z,32.10
2022-07-25T07:24:23.329Z,31.00
2022-07-25T07:26:52.183Z,30.00
2022-07-25T07:29:19.383Z,29.20
2022-07-25T07:31:46.625Z,29.10
2022-07-25T07:34:14.359Z,29.40
2022-07-25T07:36:43.305Z,29.90
2022-07-25T07:39:10.478Z,29.80
2022-07-25T07:41:37.588Z,30.00
2022-07-25T07:44:05.955Z,29.70
2022-07-25T07:46:33.095Z,29.60
2022-07-25T07:49:00.383Z,29.70
2022-07-25T07:51:27.583Z,29.90
2022-07-25T07:54:13.141Z,29.90
2022-07-25T07:56:40.256Z,30.20
2022-07-25T07:59:07.843Z,30.60
2022-07-25T08:01:35.764Z,30.80
2022-07-25T08:04:03.407Z,30.60
2022-07-25T08:06:30.487Z,30.60
2022-07-25T08:08:57.610Z,30.40
2022-07-25T08:11:25.889Z,30.60
2022-07-25T08:13:52.943Z,30.20
2022-07-25T08:16:20.168Z,30.40
2022-07-25T08:18:47.312Z,30.30
2022-07-25T08:21:16.486Z,30.20
2022-07-25T08:23:46.696Z,29.90
2022-07-25T08:26:16.855Z,29.70
2022-07-25T08:28:43.898Z,29.50
2022-07-25T08:31:13.591Z,29.60
2022-07-25T08:33:40.824Z,29.40
2022-07-25T08:36:10.991Z,29.40
2022-07-25T08:38:38.141Z,29.40
2022-07-25T08:41:05.484Z,29.50
2022-07-25T08:43:36.074Z,29.50
2022-07-25T08:46:05.329Z,29.50
2022-07-25T08:48:32.762Z,29.50
2022-07-25T08:51:00.568Z,29.40
2022-07-25T08:53:33.240Z,29.40
2022-07-25T08:56:04.325Z,29.30
2022-07-25T08:58:37.611Z,29.40
2022-07-25T09:01:04.736Z,29.30
2022-07-25T09:03:31.929Z,29.30
2022-07-25T09:05:59.458Z,29.20
2022-07-25T09:08:26.713Z,29.20
2022-07-25T09:10:54.236Z,29.30
2022-07-25T09:13:23.904Z,29.30
2022-07-25T09:15:53.914Z,29.20
2022-07-25T09:18:26.463Z,29.40
2022-07-25T09:21:00.719Z,29.60
2022-07-25T09:23:32.177Z,29.70
2022-07-25T09:26:11.196Z,29.40
2022-07-25T09:28:57.115Z,29.10
2022-07-25T09:31:35.078Z,29.30
2022-07-25T09:34:08.526Z,29.50
2022-07-25T09:36:39.770Z,29.70
2022-07-25T09:39:07.054Z,29.50
2022-07-25T09:41:41.463Z,29.70
2022-07-25T09:44:23.271Z,29.70
2022-07-25T09:46:51.075Z,29.60
2022-07-25T09:49:19.451Z,29.40
2022-07-25T09:51:47.550Z,29.30
2022-07-25T09:54:15.874Z,29.10
2022-07-25T09:56:42.991Z,29.00
2022-07-25T09:59:10.048Z,29.20
2022-07-25T10:01:48.921Z,29.70
2022-07-25T10:04:27.550Z,30.10
2022-07-25T10:07:10.634Z,30.40
2022-07-25T10:09:49.759Z,30.40
2022-07-25T10:12:21.449Z,30.60
2022-07-25T10:15:24.107Z,30.50
2022-07-25T10:18:03.659Z,30.30
2022-07-25T10:20:30.763Z,30.30
2022-07-25T10:22:58.340Z,30.20
2022-07-25T10:25:26.333Z,29.90
2022-07-25T10:28:03.844Z,29.50
2022-07-25T10:30:39.322Z,29.10
2022-07-25T10:33:17.754Z,28.70
2022-07-25T10:35:46.123Z,28.30
2022-07-25T10:38:13.653Z,28.10
2022-07-25T10:40:44.759Z,27.80
2022-07-25T10:43:14.595Z,27.60
2022-07-25T10:45:58.158Z,27.40
2022-07-25T10:48:28.981Z,27.20
2022-07-25T10:51:03.829Z,27.10
2022-07-25T10:53:36.018Z,26.90
2022-07-25T10:56:08.870Z,26.80
2022-07-25T10:58:49.136Z,26.70
2022-07-25T11:01:29.267Z,26.70
2022-07-25T11:03:59.120Z,26.70
2022-07-25T11:06:37.995Z,26.90
2022-07-25T11:09:21.578Z,27.10
2022-07-25T11:11:54.512Z,26.90
2022-07-25T11:14:33.500Z,26.80
2022-07-25T11:17:20.481Z,26.70
2022-07-25T11:20:09.330Z,26.60
2022-07-25T11:22:36.645Z,27.00
2022-07-25T11:25:12.049Z,27.10
2022-07-25T11:27:39.184Z,26.90
2022-07-25T11:30:15.570Z,26.80
2022-07-25T11:32:45.062Z,26.90
2022-07-25T11:35:14.679Z,27.20
2022-07-25T11:37:47.985Z,28.10
2022-07-25T11:40:16.656Z,28.20
2022-07-25T11:42:49.566Z,27.80
2022-07-25T11:45:33.795Z,27.60
2022-07-25T11:48:09.330Z,27.70
2022-07-25T11:50:39.049Z,28.20
2022-07-25T11:53:08.445Z,28.60
2022-07-25T11:55:40.368Z,28.60
2022-07-25T11:58:08.932Z,28.20
2022-07-25T12:00:47.925Z,28.40
2022-07-25T12:03:19.911Z,28.50
2022-07-25T12:05:48.990Z,28.60
2022-07-25T12:08:18.234Z,28.80
2022-07-25T12:10:55.181Z,28.70
2022-07-25T12:13:24.595Z,29.00
2022-07-25T12:15:51.677Z,28.80
2022-07-25T12:18:19.147Z,28.60
2022-07-25T12:20:46.235Z,28.80
2022-07-25T12:23:14.185Z,28.60
2022-07-25T12:25:46.429Z,28.10
2022-07-25T12:28:13.904Z,28.10
2022-07-25T12:30:43.778Z,28.20
2022-07-25T12:33:12.082Z,28.30
2022-07-25T12:35:41.411Z,28.70
2022-07-25T12:38:09.398Z,28.90
2022-07-25T12:40:36.821Z,29.30
2022-07-25T12:43:07.411Z,29.80
2022-07-25T12:45:34.556Z,30.00
2022-07-25T12:48:02.673Z,29.80
2022-07-25T12:50:29.812Z,30.10
2022-07-25T12:52:56.905Z,30.30
2022-07-25T12:55:24.345Z,30.30
2022-07-25T12:57:51.499Z,30.60
2022-07-25T13:00:20.856Z,30.80
2022-07-25T13:02:52.160Z,30.60
2022-07-25T13:05:20.308Z,30.00
2022-07-25T13:07:49.993Z,28.80
2022-07-25T13:10:18.203Z,28.10
2022-07-25T13:12:45.863Z,27.70
2022-07-25T13:15:13.149Z,27.90
2022-07-25T13:17:40.780Z,28.00
2022-07-25T13:20:08.894Z,28.20
2022-07-25T13:22:36.029Z,28.20
2022-07-25T13:25:03.292Z,28.30
2022-07-25T13:27:30.490Z,28.80
2022-07-25T13:29:58.145Z,28.90
2022-07-25T13:32:26.875Z,29.00
2022-07-25T13:34:54.096Z,29.30
2022-07-25T13:37:21.406Z,30.10
2022-07-25T13:39:48.831Z,30.40
2022-07-25T13:42:15.963Z,30.80
2022-07-25T13:44:43.882Z,31.30
2022-07-25T13:47:11.365Z,31.40
2022-07-25T13:49:38.910Z,31.30
2022-07-25T13:52:06.538Z,31.40
2022-07-25T13:54:33.868Z,31.90
2022-07-25T13:57:03.119Z,31.60
2022-07-25T13:59:30.358Z,31.00
2022-07-25T14:01:57.523Z,30.20
2022-07-25T14:04:24.727Z,29.60
2022-07-25T14:06:52.378Z,29.10
2022-07-25T14:09:21.663Z,28.50
2022-07-25T14:11:48.735Z,28.00
2022-07-25T14:14:15.832Z,27.60
2022-07-25T14:16:43.022Z,27.40
2022-07-25T14:19:10.825Z,27.30
2022-07-25T14:21:38.206Z,27.20
2022-07-25T14:24:05.789Z,27.00
2022-07-25T14:26:34.772Z,26.90
2022-07-25T14:29:02.281Z,26.90
2022-07-25T14:31:29.637Z,27.70
2022-07-25T14:33:56.733Z,28.70
2022-07-25T14:36:24.084Z,29.30
2022-07-25T14:38:51.389Z,30.40
2022-07-25T14:41:19.713Z,31.30
2022-07-25T14:43:46.792Z,31.70
2022-07-25T14:46:15.126Z,31.20
2022-07-25T14:48:42.473Z,30.40
2022-07-25T14:51:09.620Z,29.90
2022-07-25T14:53:36.953Z,29.40
2022-07-25T14:56:06.095Z,28.70
2022-07-25T14:58:33.693Z,28.70
2022-07-25T15:01:01.002Z,29.00
2022-07-25T15:03:28.222Z,28.70
2022-07-25T15:05:55.361Z,28.20
2022-07-25T15:08:22.671Z,27.60
2022-07-25T15:10:49.851Z,27.30
2022-07-25T15:13:32.697Z,27.10
2022-07-25T15:16:02.212Z,26.80
2022-07-25T15:18:32.106Z,26.60
2022-07-25T15:20:59.320Z,26.40
2022-07-25T15:23:30.184Z,26.40
2022-07-25T15:26:01.722Z,26.20
2022-07-25T15:28:34.105Z,26.10
2022-07-25T15:31:01.465Z,26.00
2022-07-25T15:33:28.922Z,25.80
2022-07-25T15:35:56.382Z,25.80
2022-07-25T15:38:24.014Z,25.70
2022-07-25T15:40:51.125Z,25.80
2022-07-25T15:43:18.402Z,25.70
2022-07-25T15:45:46.966Z,25.60
2022-07-25T15:48:17.382Z,25.50
2022-07-25T15:50:47.343Z,25.30
2022-07-25T15:53:15.276Z,25.10
2022-07-25T15:55:43.288Z,24.90
2022-07-25T15:58:11.882Z,24.70
2022-07-25T16:00:40.567Z,24.70
2022-07-25T16:03:08.065Z,24.70
2022-07-25T16:05:36.287Z,24.80
2022-07-25T16:08:03.971Z,24.80
2022-07-25T16:10:33.237Z,24.70
2022-07-25T16:13:00.978Z,24.50
2022-07-25T16:15:28.862Z,24.30
2022-07-25T16:18:01.765Z,24.10
2022-07-25T16:20:31.811Z,24.00
2022-07-25T16:23:00.079Z,23.90
2022-07-25T16:25:28.683Z,23.90
2022-07-25T16:27:56.670Z,23.80
2022-07-25T16:30:24.152Z,23.80
2022-07-25T16:32:51.670Z,23.80
2022-07-25T16:35:19.159Z,23.80
2022-07-25T16:37:46.634Z,23.80
2022-07-25T16:40:14.797Z,23.70
2022-07-25T16:42:42.429Z,23.60
2022-07-25T16:45:10.537Z,23.50
2022-07-25T16:47:39.774Z,23.50
2022-07-25T16:50:07.448Z,23.50
2022-07-25T16:52:34.957Z,23.40
2022-07-25T16:55:02.495Z,23.40
2022-07-25T16:57:30.505Z,23.30
2022-07-25T16:59:58.056Z,23.30
2022-07-25T17:02:29.509Z,23.40
2022-07-25T17:04:57.865Z,23.70
2022-07-25T17:07:25.871Z,24.00
2022-07-25T17:09:53.629Z,24.40
2022-07-25T17:12:21.461Z,24.60
2022-07-25T17:14:48.635Z,24.60
2022-07-25T17:17:15.693Z,24.50
2022-07-25T17:19:42.866Z,24.50
2022-07-25T17:22:10.551Z,24.50
2022-07-25T17:24:37.890Z,24.50
2022-07-25T17:27:06.340Z,24.30
2022-07-25T17:29:34.208Z,24.00
2022-07-25T17:32:01.747Z,24.00
2022-07-25T17:34:29.229Z,23.80
2022-07-25T17:36:57.463Z,23.60
2022-07-25T17:39:30.241Z,23.50
2022-07-25T17:41:57.440Z,23.40
2022-07-25T17:44:24.844Z,23.40
2022-07-25T17:46:55.872Z,23.30
2022-07-25T17:49:25.932Z,23.20
2022-07-25T17:51:53.332Z,23.10
2022-07-25T17:54:20.821Z,23.00
2022-07-25T17:56:48.183Z,22.90
2022-07-25T17:59:15.531Z,22.90
2022-07-25T18:01:43.413Z,22.70
2022-07-25T18:04:11.235Z,22.80
2022-07-25T18:06:38.533Z,22.90
2022-07-25T18:09:05.760Z,22.90
2022-07-25T18:11:33.340Z,22.90
2022-07-25T18:14:00.480Z,23.00
2022-07-25T18:16:28.040Z,23.00
2022-07-25T18:18:55.100Z,23.00
2022-07-25T18:21:23.029Z,23.00
2022-07-25T18:23:50.347Z,23.00
2022-07-25T18:26:18.279Z,22.90
2022-07-25T18:28:45.679Z,22.90
2022-07-25T18:31:12.970Z,22.90
2022-07-25T18:33:40.077Z,22.80
2022-07-25T18:36:10.063Z,22.70
2022-07-25T18:38:37.332Z,22.60
2022-07-25T18:41:29.381Z,22.60
2022-07-25T18:43:53.585Z,22.50
2022-07-25T18:46:21.076Z,22.40
2022-07-25T18:48:48.573Z,22.30
2022-07-25T18:51:16.706Z,22.20
2022-07-25T18:53:47.968Z,22.10
2022-07-25T18:56:18.519Z,22.10
2022-07-25T18:58:45.675Z,22.10
2022-07-25T19:01:12.945Z,22.10
2022-07-25T19:03:41.022Z,22.10
2022-07-25T19:06:11.979Z,22.00
2022-07-25T19:08:39.386Z,21.90
2022-07-25T19:11:07.705Z,21.90
2022-07-25T19:13:51.595Z,21.90
2022-07-25T19:16:19.827Z,21.90
2022-07-25T19:18:47.559Z,21.80
2022-07-25T19:21:15.529Z,21.70
2022-07-25T19:23:48.196Z,21.70
2022-07-25T19:26:17.547Z,21.60
2022-07-25T19:28:44.810Z,21.40
2022-07-25T19:31:11.999Z,21.40
2022-07-25T19:33:40.331Z,21.40
2022-07-25T19:36:07.773Z,21.30
2022-07-25T19:38:35.740Z,21.30
2022-07-25T19:41:03.016Z,21.20
2022-07-25T19:43:30.183Z,21.20
2022-07-25T19:45:57.456Z,21.10
2022-07-25T19:48:24.707Z,21.00
2022-07-25T19:50:52.934Z,21.00
2022-07-25T19:53:22.156Z,21.00
2022-07-25T19:55:52.947Z,20.90
2022-07-25T19:58:20.905Z,20.90
2022-07-25T20:00:48.134Z,20.80
2022-07-25T20:03:15.797Z,20.80
2022-07-25T20:05:43.000Z,20.80
2022-07-25T20:08:11.451Z,20.70
2022-07-25T20:10:41.315Z,20.70
2022-07-25T20:13:08.418Z,20.60
2022-07-25T20:15:35.517Z,20.50
2022-07-25T20:18:03.207Z,20.50
2022-07-25T20:20:32.223Z,20.40
2022-07-25T20:22:59.318Z,20.40
2022-07-25T20:25:27.318Z,20.30
2022-07-25T20:27:54.636Z,20.30
2022-07-25T20:30:22.038Z,20.20
2022-07-25T20:32:49.184Z,20.20
2022-07-25T20:35:16.805Z,20.20
2022-07-25T20:37:44.967Z,20.10
2022-07-25T20:40:12.825Z,20.00
2022-07-25T20:42:40.890Z,20.00
2022-07-25T20:45:08.695Z,20.00
2022-07-25T20:47:39.591Z,19.90
2022-07-25T20:50:07.138Z,19.90
2022-07-25T20:52:34.249Z,19.90
2022-07-25T20:55:01.948Z,19.90
2022-07-25T20:57:35.622Z,19.90
2022-07-25T21:00:03.618Z,19.90
2022-07-25T21:02:30.725Z,19.90
2022-07-25T21:04:57.801Z,19.90
2022-07-25T21:07:25.109Z,19.80
2022-07-25T21:09:52.171Z,19.80
2022-07-25T21:12:19.271Z,19.70
2022-07-25T21:14:46.444Z,19.70
2022-07-25T21:17:13.635Z,19.70
2022-07-25T21:19:40.779Z,19.60
2022-07-25T21:22:08.172Z,19.60
2022-07-25T21:24:35.306Z,19.50
2022-07-25T21:27:02.334Z,19.50
2022-07-25T21:29:29.682Z,19.40
2022-07-25T21:31:56.795Z,19.30
2022-07-25T21:34:24.542Z,19.30
2022-07-25T21:36:51.759Z,19.20
2022-07-25T21:39:18.818Z,19.20
2022-07-25T21:41:46.657Z,19.20
2022-07-25T21:44:13.887Z,19.20
2022-07-25T21:46:40.943Z,19.20
2022-07-25T21:49:41.023Z,19.20
2022-07-25T21:52:13.718Z,19.20
2022-07-25T21:54:42.383Z,19.20
2022-07-25T21:57:13.533Z,19.20
2022-07-25T21:59:42.890Z,19.20
2022-07-25T22:02:10.080Z,19.10
2022-07-25T22:04:37.365Z,19.10
2022-07-25T22:07:04.651Z,19.10
2022-07-25T22:09:32.436Z,19.20
2022-07-25T22:11:59.619Z,19.10
2022-07-25T22:14:26.975Z,19.10
2022-07-25T22:16:57.046Z,19.10
2022-07-25T22:19:24.280Z,19.10
2022-07-25T22:21:51.719Z,19.10
2022-07-25T22:24:18.790Z,19.10
2022-07-25T22:26:47.872Z,19.10
2022-07-25T22:29:15.085Z,19.10
2022-07-25T22:31:42.298Z,19.20
2022-07-25T22:34:09.474Z,19.20
2022-07-25T22:36:36.566Z,19.10
2022-07-25T22:39:04.217Z,19.10
2022-07-25T22:41:31.533Z,19.10
2022-07-25T22:44:00.055Z,19.10
2022-07-25T22:46:28.633Z,19.10
2022-07-25T22:48:57.082Z,19.10
2022-07-25T22:51:24.790Z,19.10
2022-07-25T22:53:51.955Z,19.10
2022-07-25T22:56:19.452Z,19.10
2022-07-25T22:58:49.027Z,19.00
2022-07-25T23:01:20.145Z,19.00
2022-07-25T23:03:50.283Z,19.00
2022-07-25T23:06:19.604Z,19.00
2022-07-25T23:08:47.182Z,19.00
2022-07-25T23:11:15.314Z,19.00
2022-07-25T23:13:42.663Z,18.90
2022-07-25T23:16:10.188Z,18.90
2022-07-25T23:18:38.448Z,18.90
2022-07-25T23:21:06.013Z,18.90
2022-07-25T23:23:33.409Z,18.90
2022-07-25T23:26:00.557Z,18.90
2022-07-25T23:28:27.785Z,18.90
2022-07-25T23:30:54.939Z,18.80
2022-07-25T23:33:25.452Z,18.80
2022-07-25T23:35:53.960Z,18.70
2022-07-25T23:38:21.863Z,18.70
2022-07-25T23:40:49.649Z,18.60
2022-07-25T23:43:26.782Z,18.60
2022-07-25T23:46:05.539Z,18.60
2022-07-25T23:48:34.768Z,18.50
2022-07-25T23:51:01.938Z,18.50
2022-07-25T23:53:29.459Z,18.40
2022-07-25T23:55:56.528Z,18.40
2022-07-25T23:58:23.611Z,18.40
